Time;durP1;ratioP1;P1;durP2;ratioP2;P2;SDS_P1;SDS_P2;PMS_P1;PMS_P2;Temp;Humidity;BMP_temperature;BMP_pressure;BME280_temperature;BME280_humidity;BME280_pressure;Samples;Min_cycle;Max_cycle;Signal;HPM_P1;HPM_P2
2024/05/02 00:00:07;;;;;;;;;;;18.30;99.90;;;;;;5360221;26;20049;-65
2024/05/02 00:02:32;;;;;;;;;;;18.30;99.90;;;;;;5352223;26;19938;-65
2024/05/02 00:04:58;;;;;;;;;;;18.30;99.90;;;;;;5360979;26;19925;-66
2024/05/02 00:07:24;;;;;;;;;;;18.30;99.90;;;;;;5359615;26;19926;-66
2024/05/02 00:09:49;;;;;;;;;;;18.20;99.90;;;;;;5352466;26;19994;-66
2024/05/02 00:12:15;;;;;;;;;;;18.30;99.90;;;;;;5363872;26;20031;-65
2024/05/02 00:14:40;;;;;;;;;;;18.20;99.90;;;;;;5360364;26;19926;-66
2024/05/02 00:17:06;;;;;;;;;;;18.20;99.90;;;;;;5367623;26;19938;-66
2024/05/02 00:19:31;;;;;;;;;;;18.10;99.90;;;;;;5358153;26;19959;-66
2024/05/02 00:21:56;;;;;;;;;;;18.10;99.90;;;;;;5361707;26;19926;-66
2024/05/02 00:24:22;;;;;;;;;;;18.10;99.90;;;;;;5354842;26;19932;-65
2024/05/02 00:26:47;;;;;;;;;;;18.10;99.90;;;;;;5375110;26;20345;-66
2024/05/02 00:29:13;;;;;;;;;;;18.00;99.90;;;;;;5366777;26;19953;-65
2024/05/02 00:31:38;;;;;;;;;;;18.00;99.90;;;;;;5365788;26;19925;-66
2024/05/02 00:34:06;;;;;;;;;;;18.00;99.90;;;;;;5354612;26;19925;-66
2024/05/02 00:36:32;;;;;;;;;;;18.00;99.90;;;;;;5366361;26;19933;-65
2024/05/02 00:38:58;;;;;;;;;;;18.00;99.90;;;;;;5354572;26;20555;-65
2024/05/02 00:41:23;;;;;;;;;;;17.90;99.90;;;;;;5362719;26;19935;-66
2024/05/02 00:43:49;;;;;;;;;;;17.90;99.90;;;;;;5363887;26;19932;-65
2024/05/02 00:46:14;;;;;;;;;;;17.90;99.90;;;;;;5358647;26;19944;-65
2024/05/02 00:48:41;;;;;;;;;;;17.90;99.90;;;;;;5362164;26;19933;-66
2024/05/02 00:51:07;;;;;;;;;;;17.80;99.90;;;;;;5357785;26;20354;-66
2024/05/02 00:53:32;;;;;;;;;;;17.80;99.90;;;;;;5355370;26;19933;-65
2024/05/02 00:55:58;;;;;;;;;;;17.70;99.90;;;;;;5351933;26;19937;-66
2024/05/02 00:58:24;;;;;;;;;;;17.70;99.90;;;;;;5355200;26;19933;-67
2024/05/02 01:00:49;;;;;;;;;;;17.70;99.90;;;;;;5354423;26;19945;-65
2024/05/02 01:03:15;;;;;;;;;;;17.70;99.90;;;;;;5360550;26;19967;-65
2024/05/02 01:05:40;;;;;;;;;;;17.60;99.90;;;;;;5364636;26;19936;-65
2024/05/02 01:08:07;;;;;;;;;;;17.60;99.90;;;;;;5359756;26;20145;-65
2024/05/02 01:10:32;;;;;;;;;;;17.60;99.90;;;;;;5364301;26;19932;-66
2024/05/02 01:12:58;;;;;;;;;;;17.60;99.90;;;;;;5360366;26;20402;-65
2024/05/02 01:15:24;;;;;;;;;;;17.60;99.90;;;;;;5370100;26;19925;-65
2024/05/02 01:17:49;;;;;;;;;;;17.50;99.90;;;;;;5362214;26;20142;-65
2024/05/02 01:20:15;;;;;;;;;;;17.50;99.90;;;;;;5360860;26;19948;-65
2024/05/02 01:22:40;;;;;;;;;;;17.50;99.90;;;;;;5351918;26;19940;-65
2024/05/02 01:25:05;;;;;;;;;;;17.50;99.90;;;;;;5355104;26;19941;-66
2024/05/02 01:27:31;;;;;;;;;;;17.50;99.90;;;;;;5365948;26;20359;-65
2024/05/02 01:29:56;;;;;;;;;;;17.50;99.90;;;;;;5361869;26;19933;-65
2024/05/02 01:32:22;;;;;;;;;;;17.50;99.90;;;;;;5349663;26;19933;-65
2024/05/02 01:34:47;;;;;;;;;;;17.50;99.90;;;;;;5355571;26;19994;-65
2024/05/02 01:37:13;;;;;;;;;;;17.50;99.90;;;;;;5360873;26;19925;-66
2024/05/02 01:39:38;;;;;;;;;;;17.50;99.90;;;;;;5361181;26;20259;-66
2024/05/02 01:42:06;;;;;;;;;;;17.50;99.90;;;;;;5361587;26;20255;-65
2024/05/02 01:44:33;;;;;;;;;;;17.50;99.90;;;;;;5353157;26;19925;-66
2024/05/02 01:46:58;;;;;;;;;;;17.50;99.90;;;;;;5357541;26;19925;-65
2024/05/02 01:49:24;;;;;;;;;;;17.50;99.90;;;;;;5353947;26;19950;-66
2024/05/02 01:51:49;;;;;;;;;;;17.40;99.90;;;;;;5356751;26;19926;-65
2024/05/02 01:54:15;;;;;;;;;;;17.40;99.90;;;;;;5358645;26;20367;-66
2024/05/02 01:56:40;;;;;;;;;;;17.40;99.90;;;;;;5361391;26;19925;-66
2024/05/02 01:59:06;;;;;;;;;;;17.40;99.90;;;;;;5361615;26;19926;-66
2024/05/02 02:01:31;;;;;;;;;;;17.40;99.90;;;;;;5353133;26;20379;-65
2024/05/02 02:03:56;;;;;;;;;;;17.40;99.90;;;;;;5354631;26;20660;-65
2024/05/02 02:06:22;;;;;;;;;;;17.30;99.90;;;;;;5358828;26;19934;-66
2024/05/02 02:08:48;;;;;;;;;;;17.30;99.90;;;;;;5356578;26;19932;-66
2024/05/02 02:11:13;;;;;;;;;;;17.30;99.90;;;;;;5364377;26;19926;-65
2024/05/02 02:13:39;;;;;;;;;;;17.30;99.90;;;;;;5363643;26;19962;-66
2024/05/02 02:16:04;;;;;;;;;;;17.20;99.90;;;;;;5355139;26;19925;-65
2024/05/02 02:18:30;;;;;;;;;;;17.30;99.90;;;;;;5366056;26;19929;-65
2024/05/02 02:20:57;;;;;;;;;;;17.20;99.90;;;;;;5350672;26;19934;-66
2024/05/02 02:23:22;;;;;;;;;;;17.20;99.90;;;;;;5353942;26;19940;-65
2024/05/02 02:25:48;;;;;;;;;;;17.20;99.90;;;;;;5358850;26;19929;-65
2024/05/02 02:28:14;;;;;;;;;;;17.20;99.90;;;;;;5363116;26;20352;-66
2024/05/02 02:30:39;;;;;;;;;;;17.10;99.90;;;;;;5360271;26;20003;-66
2024/05/02 02:33:05;;;;;;;;;;;17.10;99.90;;;;;;5358927;26;19989;-66
2024/05/02 02:35:35;;;;;;;;;;;17.10;99.90;;;;;;5360275;26;20264;-66
2024/05/02 02:38:03;;;;;;;;;;;17.10;99.90;;;;;;5355039;26;19933;-66
2024/05/02 02:40:29;;;;;;;;;;;17.00;99.90;;;;;;5360585;26;19933;-65
2024/05/02 02:42:55;;;;;;;;;;;17.00;99.90;;;;;;5355922;26;19982;-65
2024/05/02 02:45:20;;;;;;;;;;;17.00;99.90;;;;;;5355053;26;19932;-66
2024/05/02 02:47:46;;;;;;;;;;;17.00;99.90;;;;;;5353523;26;19925;-66
2024/05/02 02:50:11;;;;;;;;;;;16.90;99.90;;;;;;5353613;26;20238;-66
2024/05/02 02:52:37;;;;;;;;;;;16.90;99.90;;;;;;5359634;26;19925;-66
2024/05/02 02:55:02;;;;;;;;;;;16.90;99.90;;;;;;5357557;26;20331;-65
2024/05/02 02:57:28;;;;;;;;;;;16.90;99.90;;;;;;5357828;26;19926;-67
2024/05/02 02:59:53;;;;;;;;;;;16.80;99.90;;;;;;5358717;26;20348;-66
2024/05/02 03:02:19;;;;;;;;;;;16.90;99.90;;;;;;5359950;26;19925;-66
2024/05/02 03:04:44;;;;;;;;;;;16.80;99.90;;;;;;5364249;26;19934;-67
2024/05/02 03:07:10;;;;;;;;;;;16.90;99.90;;;;;;5364992;26;19926;-66
2024/05/02 03:09:35;;;;;;;;;;;16.90;99.90;;;;;;5362823;26;19925;-65
2024/05/02 03:12:01;;;;;;;;;;;16.80;99.90;;;;;;5350220;26;19933;-66
2024/05/02 03:14:27;;;;;;;;;;;16.80;99.90;;;;;;5364327;26;19954;-66
2024/05/02 03:16:52;;;;;;;;;;;16.80;99.90;;;;;;5359963;26;20377;-66
2024/05/02 03:19:18;;;;;;;;;;;16.80;99.90;;;;;;5366929;26;20008;-66
2024/05/02 03:21:47;;;;;;;;;;;16.70;99.90;;;;;;5361008;26;19941;-66
2024/05/02 03:24:12;;;;;;;;;;;16.70;99.90;;;;;;5365831;26;19925;-65
2024/05/02 03:26:38;;;;;;;;;;;16.70;99.90;;;;;;5367557;26;19945;-66
2024/05/02 03:29:03;;;;;;;;;;;16.70;99.90;;;;;;5364669;26;19925;-66
2024/05/02 03:31:29;;;;;;;;;;;16.60;99.90;;;;;;5353591;26;21469;-66
2024/05/02 03:33:54;;;;;;;;;;;16.60;99.90;;;;;;5362343;26;19945;-66
2024/05/02 03:36:20;;;;;;;;;;;16.60;99.90;;;;;;5357290;26;19932;-66
2024/05/02 03:38:46;;;;;;;;;;;16.50;99.90;;;;;;5353753;26;19925;-66
2024/05/02 03:41:12;;;;;;;;;;;16.50;99.90;;;;;;5364339;26;19925;-68
2024/05/02 03:43:38;;;;;;;;;;;16.50;99.90;;;;;;5358789;26;20002;-66
2024/05/02 03:46:07;;;;;;;;;;;16.40;99.90;;;;;;5360681;26;19950;-65
2024/05/02 03:48:32;;;;;;;;;;;16.30;99.90;;;;;;5364197;26;19945;-66
2024/05/02 03:50:58;;;;;;;;;;;16.30;99.90;;;;;;5359577;26;20265;-65
2024/05/02 03:53:23;;;;;;;;;;;16.30;99.90;;;;;;5356572;26;19926;-66
2024/05/02 03:55:49;;;;;;;;;;;16.30;99.90;;;;;;5352947;26;19925;-65
2024/05/02 03:58:14;;;;;;;;;;;16.20;99.90;;;;;;5357894;26;20561;-65
2024/05/02 04:00:40;;;;;;;;;;;16.20;99.90;;;;;;5355075;26;19941;-66
2024/05/02 04:03:05;;;;;;;;;;;16.20;99.90;;;;;;5354216;26;19933;-66
2024/05/02 04:05:31;;;;;;;;;;;16.20;99.90;;;;;;5359868;26;19926;-65
2024/05/02 04:07:56;;;;;;;;;;;16.10;99.90;;;;;;5363655;26;19933;-65
2024/05/02 04:10:22;;;;;;;;;;;16.10;99.90;;;;;;5369496;26;20400;-66
2024/05/02 04:12:48;;;;;;;;;;;16.10;99.90;;;;;;5356703;26;19950;-66
2024/05/02 04:15:13;;;;;;;;;;;16.10;99.90;;;;;;5357583;26;19933;-66
2024/05/02 04:17:38;;;;;;;;;;;16.10;99.90;;;;;;5351484;26;19925;-66
2024/05/02 04:20:04;;;;;;;;;;;16.10;99.90;;;;;;5359254;26;19926;-66
2024/05/02 04:22:30;;;;;;;;;;;16.00;99.90;;;;;;5356349;26;20003;-66
2024/05/02 04:24:55;;;;;;;;;;;16.00;99.90;;;;;;5354053;26;19975;-66
2024/05/02 04:27:21;;;;;;;;;;;16.00;99.90;;;;;;5357369;26;19933;-65
2024/05/02 04:29:46;;;;;;;;;;;16.00;99.90;;;;;;5362681;26;19925;-65
2024/05/02 04:32:12;;;;;;;;;;;16.00;99.90;;;;;;5349783;26;19932;-67
2024/05/02 04:34:37;;;;;;;;;;;16.00;99.90;;;;;;5366052;26;19926;-66
2024/05/02 04:37:03;;;;;;;;;;;16.00;99.90;;;;;;5363324;26;19926;-66
2024/05/02 04:39:28;;;;;;;;;;;16.00;99.90;;;;;;5363842;26;19937;-65
2024/05/02 04:41:53;;;;;;;;;;;15.90;99.90;;;;;;5351625;26;19926;-66
2024/05/02 04:44:19;;;;;;;;;;;15.90;99.90;;;;;;5352244;26;19999;-66
2024/05/02 04:46:44;;;;;;;;;;;16.00;99.90;;;;;;5364715;26;19933;-66
2024/05/02 04:49:10;;;;;;;;;;;16.00;99.90;;;;;;5352211;26;20047;-66
2024/05/02 04:51:35;;;;;;;;;;;16.10;99.90;;;;;;5361479;26;19933;-68
2024/05/02 04:54:01;;;;;;;;;;;16.10;99.90;;;;;;5354843;26;19933;-66
2024/05/02 04:56:26;;;;;;;;;;;16.10;99.90;;;;;;5356940;26;19926;-66
2024/05/02 04:58:52;;;;;;;;;;;16.20;99.90;;;;;;5347710;26;19925;-66
2024/05/02 05:01:17;;;;;;;;;;;16.20;99.90;;;;;;5352669;26;19944;-66
2024/05/02 05:03:43;;;;;;;;;;;16.20;99.90;;;;;;5362352;26;19965;-66
2024/05/02 05:06:08;;;;;;;;;;;16.30;99.90;;;;;;5358411;26;19962;-65
2024/05/02 05:08:34;;;;;;;;;;;16.30;99.90;;;;;;5369565;26;19925;-65
2024/05/02 05:10:59;;;;;;;;;;;16.30;99.90;;;;;;5352096;26;19937;-66
2024/05/02 05:13:24;;;;;;;;;;;16.30;99.90;;;;;;5358154;26;19933;-65
2024/05/02 05:15:50;;;;;;;;;;;16.30;99.90;;;;;;5353858;26;19933;-65
2024/05/02 05:18:16;;;;;;;;;;;16.30;99.90;;;;;;5355596;26;20006;-66
2024/05/02 05:20:41;;;;;;;;;;;16.40;99.90;;;;;;5356432;26;19925;-65
2024/05/02 05:23:10;;;;;;;;;;;16.40;99.90;;;;;;5355580;26;19926;-65
2024/05/02 05:25:36;;;;;;;;;;;16.50;99.90;;;;;;5361169;26;20345;-65
2024/05/02 05:28:01;;;;;;;;;;;16.50;99.90;;;;;;5359646;26;19994;-65
2024/05/02 05:30:27;;;;;;;;;;;16.50;99.90;;;;;;5358264;26;20499;-66
2024/05/02 05:32:52;;;;;;;;;;;16.50;99.90;;;;;;5368082;26;20426;-65
2024/05/02 05:35:18;;;;;;;;;;;16.50;99.90;;;;;;5358998;26;19999;-66
2024/05/02 05:37:43;;;;;;;;;;;16.50;99.90;;;;;;5363913;26;19936;-65
2024/05/02 05:40:09;;;;;;;;;;;16.60;99.90;;;;;;5359314;26;19926;-65
2024/05/02 05:42:34;;;;;;;;;;;16.50;99.90;;;;;;5362565;26;19940;-65
2024/05/02 05:45:00;;;;;;;;;;;16.50;99.90;;;;;;5360740;26;19934;-65
2024/05/02 05:47:25;;;;;;;;;;;16.50;99.90;;;;;;5362971;26;19994;-65
2024/05/02 05:49:51;;;;;;;;;;;16.50;99.90;;;;;;5357679;26;20425;-65
2024/05/02 05:52:16;;;;;;;;;;;16.50;99.90;;;;;;5360188;26;19932;-65
2024/05/02 05:54:42;;;;;;;;;;;16.60;99.90;;;;;;5361715;26;19968;-65
2024/05/02 05:57:07;;;;;;;;;;;16.60;99.90;;;;;;5373269;26;19976;-66
2024/05/02 05:59:33;;;;;;;;;;;16.70;99.90;;;;;;5361629;26;20348;-65
2024/05/02 06:01:58;;;;;;;;;;;16.70;99.90;;;;;;5363908;26;19973;-65
2024/05/02 06:04:24;;;;;;;;;;;16.80;99.90;;;;;;5361098;26;20443;-65
2024/05/02 06:06:49;;;;;;;;;;;16.80;99.90;;;;;;5347774;26;19933;-65
2024/05/02 06:09:18;;;;;;;;;;;16.90;99.90;;;;;;5355705;26;19945;-65
2024/05/02 06:11:43;;;;;;;;;;;16.90;99.90;;;;;;5354415;26;19940;-65
2024/05/02 06:14:09;;;;;;;;;;;17.00;99.90;;;;;;5359256;26;19934;-65
2024/05/02 06:16:34;;;;;;;;;;;17.10;99.90;;;;;;5366638;26;19959;-65
2024/05/02 06:19:00;;;;;;;;;;;17.20;99.90;;;;;;5347376;26;19945;-65
2024/05/02 06:21:26;;;;;;;;;;;17.30;99.90;;;;;;5355677;26;19926;-65
2024/05/02 06:23:52;;;;;;;;;;;17.40;99.90;;;;;;5363573;26;20279;-65
2024/05/02 06:26:17;;;;;;;;;;;17.50;99.90;;;;;;5355119;26;19925;-65
2024/05/02 06:28:43;;;;;;;;;;;17.70;99.90;;;;;;5364051;26;20367;-65
2024/05/02 06:31:09;;;;;;;;;;;17.90;99.90;;;;;;5356474;26;19945;-64
2024/05/02 06:33:34;;;;;;;;;;;18.00;99.90;;;;;;5366977;26;19953;-65
2024/05/02 06:36:00;;;;;;;;;;;18.10;99.90;;;;;;5366076;26;19926;-65
2024/05/02 06:38:25;;;;;;;;;;;18.20;99.90;;;;;;5358815;26;19926;-65
2024/05/02 06:40:51;;;;;;;;;;;18.40;99.90;;;;;;5364190;26;19958;-65
2024/05/02 06:43:17;;;;;;;;;;;18.70;99.90;;;;;;5359996;26;19926;-65
2024/05/02 06:45:42;;;;;;;;;;;18.90;99.90;;;;;;5371774;26;19925;-65
2024/05/02 06:48:08;;;;;;;;;;;19.10;99.90;;;;;;5354434;26;19954;-65
2024/05/02 06:50:33;;;;;;;;;;;19.30;99.90;;;;;;5366131;26;19933;-65
2024/05/02 06:52:59;;;;;;;;;;;19.40;99.90;;;;;;5358619;26;19933;-65
2024/05/02 06:55:24;;;;;;;;;;;19.50;99.90;;;;;;5363705;26;19926;-65
2024/05/02 06:57:50;;;;;;;;;;;19.40;99.90;;;;;;5366086;26;20030;-65
2024/05/02 07:00:17;;;;;;;;;;;19.60;99.90;;;;;;5365441;26;21145;-65
2024/05/02 07:02:43;;;;;;;;;;;19.70;99.90;;;;;;5367613;26;19950;-65
2024/05/02 07:05:08;;;;;;;;;;;20.00;99.90;;;;;;5365314;26;20267;-65
2024/05/02 07:07:34;;;;;;;;;;;20.20;99.90;;;;;;5364434;26;19933;-65
2024/05/02 07:09:59;;;;;;;;;;;20.30;99.90;;;;;;5353002;26;19926;-65
2024/05/02 07:12:25;;;;;;;;;;;20.40;99.90;;;;;;5361662;26;19932;-65
2024/05/02 07:14:50;;;;;;;;;;;20.60;99.90;;;;;;5368265;26;20379;-65
2024/05/02 07:17:16;;;;;;;;;;;20.70;99.90;;;;;;5355232;26;19937;-66
2024/05/02 07:19:41;;;;;;;;;;;20.80;99.90;;;;;;5358860;26;19937;-66
2024/05/02 07:22:14;;;;;;;;;;;20.90;99.90;;;;;;5365038;26;19937;-66
2024/05/02 07:24:39;;;;;;;;;;;21.10;99.90;;;;;;5361589;26;20380;-66
2024/05/02 07:27:05;;;;;;;;;;;21.20;99.90;;;;;;5366644;26;19926;-65
2024/05/02 07:29:30;;;;;;;;;;;21.30;99.90;;;;;;5356739;26;20290;-66
2024/05/02 07:31:56;;;;;;;;;;;21.40;99.90;;;;;;5368008;26;20518;-66
2024/05/02 07:34:21;;;;;;;;;;;21.40;99.90;;;;;;5361318;26;19932;-66
2024/05/02 07:36:47;;;;;;;;;;;21.40;99.90;;;;;;5364267;26;20363;-66
2024/05/02 07:39:12;;;;;;;;;;;21.60;99.90;;;;;;5360558;26;20467;-66
2024/05/02 07:41:38;;;;;;;;;;;21.70;99.90;;;;;;5366175;26;20024;-65
2024/05/02 07:44:03;;;;;;;;;;;21.80;99.90;;;;;;5363056;26;19933;-65
2024/05/02 07:46:29;;;;;;;;;;;21.80;99.90;;;;;;5353965;26;19926;-65
2024/05/02 07:48:54;;;;;;;;;;;21.90;99.90;;;;;;5355586;26;19926;-66
2024/05/02 07:51:20;;;;;;;;;;;22.10;99.90;;;;;;5367266;26;19948;-66
2024/05/02 07:53:46;;;;;;;;;;;22.10;99.70;;;;;;5392208;26;20015;-65
2024/05/02 07:56:13;;;;;;;;;;;22.10;99.70;;;;;;5364753;26;19936;-66
2024/05/02 07:58:39;;;;;;;;;;;22.10;99.70;;;;;;5355746;26;19933;-64
2024/05/02 08:01:04;;;;;;;;;;;22.10;99.90;;;;;;5360286;26;19934;-64
2024/05/02 08:03:30;;;;;;;;;;;22.10;99.90;;;;;;5364927;26;19933;-65
2024/05/02 08:05:55;;;;;;;;;;;22.30;99.90;;;;;;5357244;26;20414;-65
2024/05/02 08:08:21;;;;;;;;;;;22.40;99.60;;;;;;5362422;26;19926;-65
2024/05/02 08:10:46;;;;;;;;;;;22.50;99.90;;;;;;5362248;26;19938;-65
2024/05/02 08:13:12;;;;;;;;;;;22.60;99.90;;;;;;5359709;26;19940;-65
2024/05/02 08:15:38;;;;;;;;;;;22.80;99.60;;;;;;5360143;26;19933;-65
2024/05/02 08:18:03;;;;;;;;;;;23.00;98.90;;;;;;5358381;26;20362;-65
2024/05/02 08:20:29;;;;;;;;;;;23.00;99.20;;;;;;5359027;26;20442;-65
2024/05/02 08:22:54;;;;;;;;;;;23.10;99.20;;;;;;5360510;26;19936;-65
2024/05/02 08:25:20;;;;;;;;;;;23.00;99.20;;;;;;5352972;26;19933;-65
2024/05/02 08:27:45;;;;;;;;;;;23.10;99.60;;;;;;5360620;26;19942;-64
2024/05/02 08:30:11;;;;;;;;;;;23.10;99.20;;;;;;5357308;26;20274;-64
2024/05/02 08:32:36;;;;;;;;;;;23.10;99.20;;;;;;5363875;26;20403;-64
2024/05/02 08:35:02;;;;;;;;;;;23.20;99.70;;;;;;5356222;26;19933;-64
2024/05/02 08:37:29;;;;;;;;;;;23.20;99.20;;;;;;5358907;26;20359;-64
2024/05/02 08:39:55;;;;;;;;;;;23.20;98.80;;;;;;5359578;26;19940;-65
2024/05/02 08:42:20;;;;;;;;;;;23.30;98.90;;;;;;5364422;26;19949;-65
2024/05/02 08:44:47;;;;;;;;;;;23.50;99.30;;;;;;5359469;26;19940;-64
2024/05/02 08:47:13;;;;;;;;;;;23.60;98.50;;;;;;5363331;26;19925;-64
2024/05/02 08:49:40;;;;;;;;;;;23.30;98.80;;;;;;5355990;26;20024;-65
2024/05/02 08:52:06;;;;;;;;;;;23.30;98.70;;;;;;5361199;26;19934;-65
2024/05/02 08:54:31;;;;;;;;;;;23.40;99.10;;;;;;5365404;26;19945;-65
2024/05/02 08:56:58;;;;;;;;;;;23.50;98.50;;;;;;5366174;26;22275;-64
2024/05/02 08:59:29;;;;;;;;;;;23.60;99.00;;;;;;5357760;26;19933;-65
2024/05/02 09:01:55;;;;;;;;;;;23.70;98.50;;;;;;5365357;26;19926;-65
2024/05/02 09:04:21;;;;;;;;;;;23.70;98.60;;;;;;5354062;26;20645;-65
2024/05/02 09:06:49;;;;;;;;;;;23.70;98.40;;;;;;5357849;26;20360;-64
2024/05/02 09:09:14;;;;;;;;;;;23.70;98.50;;;;;;5355387;26;19925;-66
2024/05/02 09:11:56;;;;;;;;;;;23.60;98.40;;;;;;5363860;26;19994;-66
2024/05/02 09:14:22;;;;;;;;;;;23.80;98.90;;;;;;5358901;26;19933;-66
2024/05/02 09:16:51;;;;;;;;;;;23.90;99.40;;;;;;5360308;26;20466;-65
2024/05/02 09:19:17;;;;;;;;;;;24.00;98.30;;;;;;5361969;26;19977;-66
2024/05/02 09:21:42;;;;;;;;;;;23.90;98.80;;;;;;5359237;26;19933;-66
2024/05/02 09:24:08;;;;;;;;;;;24.00;99.00;;;;;;5363125;26;19954;-66
2024/05/02 09:26:34;;;;;;;;;;;23.90;98.60;;;;;;5364803;26;19953;-66
2024/05/02 09:29:02;;;;;;;;;;;23.90;98.90;;;;;;5356052;26;20005;-66
2024/05/02 09:31:28;;;;;;;;;;;24.00;98.60;;;;;;5365286;26;19934;-66
2024/05/02 09:33:53;;;;;;;;;;;23.90;98.70;;;;;;5360429;26;20259;-66
2024/05/02 09:36:21;;;;;;;;;;;23.90;98.90;;;;;;5360694;26;19926;-65
2024/05/02 09:38:47;;;;;;;;;;;24.00;98.90;;;;;;5357654;26;19962;-66
2024/05/02 09:41:14;;;;;;;;;;;24.00;98.30;;;;;;5364676;26;19933;-65
2024/05/02 09:43:40;;;;;;;;;;;24.00;98.80;;;;;;5361241;26;19925;-65
2024/05/02 09:46:09;;;;;;;;;;;23.90;98.60;;;;;;5359631;26;19932;-65
2024/05/02 09:48:38;;;;;;;;;;;23.90;99.00;;;;;;5359112;26;20361;-65
2024/05/02 09:51:07;;;;;;;;;;;24.00;98.90;;;;;;5362403;26;19991;-65
2024/05/02 09:53:33;;;;;;;;;;;24.10;99.30;;;;;;5361087;26;19936;-65
2024/05/02 09:55:59;;;;;;;;;;;24.10;99.10;;;;;;5359076;26;20429;-65
2024/05/02 09:58:25;;;;;;;;;;;24.10;98.60;;;;;;5356946;26;19925;-64
2024/05/02 10:00:50;;;;;;;;;;;24.20;98.70;;;;;;5359293;26;19925;-65
2024/05/02 10:03:16;;;;;;;;;;;24.30;98.30;;;;;;5362270;26;20756;-64
2024/05/02 10:05:42;;;;;;;;;;;24.30;98.50;;;;;;5359131;26;19925;-65
2024/05/02 10:08:12;;;;;;;;;;;24.40;98.70;;;;;;5368062;26;19937;-64
2024/05/02 10:10:37;;;;;;;;;;;24.30;98.30;;;;;;5360846;26;19926;-64
2024/05/02 10:13:03;;;;;;;;;;;24.30;98.50;;;;;;5367579;26;19941;-65
2024/05/02 10:15:34;;;;;;;;;;;24.20;99.10;;;;;;5365527;26;20020;-64
2024/05/02 10:18:00;;;;;;;;;;;24.20;98.70;;;;;;5366571;26;19941;-64
2024/05/02 10:20:26;;;;;;;;;;;24.10;98.40;;;;;;5362982;26;20335;-64
2024/05/02 10:22:52;;;;;;;;;;;24.10;98.70;;;;;;5363413;26;19931;-65
2024/05/02 10:25:29;;;;;;;;;;;24.10;99.00;;;;;;5363343;26;19933;-65
2024/05/02 10:27:59;;;;;;;;;;;24.10;98.20;;;;;;5346855;26;19933;-64
2024/05/02 10:30:26;;;;;;;;;;;24.00;98.60;;;;;;5357397;26;19954;-64
2024/05/02 10:32:52;;;;;;;;;;;24.00;99.20;;;;;;5360243;26;19926;-65
2024/05/02 10:35:17;;;;;;;;;;;24.10;98.70;;;;;;5364881;26;20347;-65
2024/05/02 10:37:44;;;;;;;;;;;24.10;98.60;;;;;;5362529;26;20445;-65
2024/05/02 10:40:14;;;;;;;;;;;24.10;98.30;;;;;;5364904;26;19934;-64
2024/05/02 10:42:40;;;;;;;;;;;24.00;98.70;;;;;;5360039;26;19941;-64
2024/05/02 10:45:06;;;;;;;;;;;24.00;99.00;;;;;;5361738;26;20279;-65
2024/05/02 10:47:32;;;;;;;;;;;24.00;98.60;;;;;;5365402;26;20007;-65
2024/05/02 10:49:57;;;;;;;;;;;24.10;99.10;;;;;;5360908;26;19938;-65
2024/05/02 10:52:23;;;;;;;;;;;24.20;98.90;;;;;;5361962;26;19933;-64
2024/05/02 10:54:49;;;;;;;;;;;24.20;98.70;;;;;;5361798;26;20288;-64
2024/05/02 10:57:15;;;;;;;;;;;24.20;99.00;;;;;;5359961;26;19940;-64
2024/05/02 10:59:40;;;;;;;;;;;24.30;98.60;;;;;;5365209;26;19941;-64
2024/05/02 11:02:06;;;;;;;;;;;24.30;98.50;;;;;;5366639;26;19930;-64
2024/05/02 11:04:31;;;;;;;;;;;24.40;98.30;;;;;;5358935;26;19926;-65
2024/05/02 11:06:57;;;;;;;;;;;24.50;98.20;;;;;;5361240;26;19933;-66
2024/05/02 11:09:22;;;;;;;;;;;24.60;98.00;;;;;;5363583;26;19925;-65
2024/05/02 11:11:53;;;;;;;;;;;24.60;98.10;;;;;;5363783;26;22330;-65
2024/05/02 11:14:19;;;;;;;;;;;24.70;97.80;;;;;;5356494;26;19934;-64
2024/05/02 11:16:44;;;;;;;;;;;24.80;97.60;;;;;;5365898;26;20261;-64
2024/05/02 11:19:10;;;;;;;;;;;24.90;97.80;;;;;;5353235;26;19934;-64
2024/05/02 11:21:35;;;;;;;;;;;24.90;97.40;;;;;;5366499;26;19940;-64
2024/05/02 11:24:02;;;;;;;;;;;25.00;97.50;;;;;;5365392;26;19926;-65
2024/05/02 11:26:28;;;;;;;;;;;25.10;97.80;;;;;;5360948;26;19925;-64
2024/05/02 11:28:53;;;;;;;;;;;25.10;97.50;;;;;;5367468;26;19929;-64
2024/05/02 11:31:19;;;;;;;;;;;25.20;97.80;;;;;;5353100;26;19932;-65
2024/05/02 11:33:48;;;;;;;;;;;25.20;97.60;;;;;;5356035;26;19932;-64
2024/05/02 11:36:14;;;;;;;;;;;25.30;97.80;;;;;;5357293;26;19926;-65
2024/05/02 11:38:39;;;;;;;;;;;25.20;97.70;;;;;;5360241;26;19933;-66
2024/05/02 11:41:06;;;;;;;;;;;25.30;98.30;;;;;;5359291;26;19933;-67
2024/05/02 11:43:32;;;;;;;;;;;25.50;96.80;;;;;;5354141;26;19934;-66
2024/05/02 11:45:58;;;;;;;;;;;25.50;97.30;;;;;;5357199;26;20004;-66
2024/05/02 11:48:23;;;;;;;;;;;25.50;97.20;;;;;;5362041;26;19960;-66
2024/05/02 11:50:49;;;;;;;;;;;25.70;97.40;;;;;;5357382;26;20323;-66
2024/05/02 11:53:14;;;;;;;;;;;25.70;96.60;;;;;;5357694;26;19926;-65
2024/05/02 11:55:40;;;;;;;;;;;25.70;96.40;;;;;;5363690;26;20347;-65
2024/05/02 11:58:05;;;;;;;;;;;25.70;97.10;;;;;;5358168;26;20259;-66
2024/05/02 12:00:31;;;;;;;;;;;25.70;96.80;;;;;;5362575;26;19929;-66
2024/05/02 12:02:57;;;;;;;;;;;25.70;96.10;;;;;;5369452;26;19926;-66
2024/05/02 12:05:22;;;;;;;;;;;25.60;96.50;;;;;;5367826;26;20138;-67
2024/05/02 12:07:48;;;;;;;;;;;25.60;96.50;;;;;;5357289;26;19925;-65
2024/05/02 12:10:15;;;;;;;;;;;25.60;96.40;;;;;;5352395;26;19941;-64
2024/05/02 12:12:40;;;;;;;;;;;25.60;96.60;;;;;;5353865;26;19969;-65
2024/05/02 12:15:06;;;;;;;;;;;25.70;96.30;;;;;;5318500;26;19926;-65
2024/05/02 12:17:31;;;;;;;;;;;25.70;96.30;;;;;;5350881;26;20377;-65
2024/05/02 12:20:04;;;;;;;;;;;25.70;96.30;;;;;;5354785;26;19937;-66
2024/05/02 12:22:30;;;;;;;;;;;25.80;96.40;;;;;;5357579;26;20032;-66
2024/05/02 12:24:55;;;;;;;;;;;25.80;96.60;;;;;;5348501;26;19933;-69
2024/05/02 12:27:21;;;;;;;;;;;25.80;96.80;;;;;;5358373;26;20347;-65
2024/05/02 12:29:46;;;;;;;;;;;25.80;95.90;;;;;;5346994;26;19934;-64
2024/05/02 12:32:12;;;;;;;;;;;25.80;96.30;;;;;;5357358;26;19939;-65
2024/05/02 12:34:37;;;;;;;;;;;25.80;96.10;;;;;;5355307;26;19926;-65
2024/05/02 12:37:06;;;;;;;;;;;25.80;95.90;;;;;;5357847;26;19937;-65
2024/05/02 12:39:31;;;;;;;;;;;25.90;96.20;;;;;;5361890;26;19932;-68
2024/05/02 12:41:57;;;;;;;;;;;26.00;95.80;;;;;;5354723;26;19925;-65
2024/05/02 12:44:22;;;;;;;;;;;25.90;96.00;;;;;;5355973;26;19926;-65
2024/05/02 12:46:50;;;;;;;;;;;25.90;96.10;;;;;;5350837;26;19925;-67
2024/05/02 12:49:16;;;;;;;;;;;25.90;96.20;;;;;;5351247;26;19995;-64
2024/05/02 12:51:41;;;;;;;;;;;26.00;96.90;;;;;;5357882;26;19937;-64
2024/05/02 12:54:07;;;;;;;;;;;26.00;96.00;;;;;;5362311;26;20269;-66
2024/05/02 12:56:32;;;;;;;;;;;26.00;95.70;;;;;;5354203;26;20275;-66
2024/05/02 12:58:58;;;;;;;;;;;26.10;95.60;;;;;;5355753;26;20685;-64
2024/05/02 13:01:23;;;;;;;;;;;26.10;96.10;;;;;;5356395;26;19926;-65
2024/05/02 13:03:49;;;;;;;;;;;26.00;95.80;;;;;;5355279;26;19936;-64
2024/05/02 13:06:14;;;;;;;;;;;26.00;96.10;;;;;;5348166;26;19937;-66
2024/05/02 13:08:40;;;;;;;;;;;26.10;95.70;;;;;;5354977;26;19926;-64
2024/05/02 13:11:05;;;;;;;;;;;26.10;95.40;;;;;;5355386;26;20362;-65
2024/05/02 13:13:31;;;;;;;;;;;26.00;95.10;;;;;;5367015;26;19926;-65
2024/05/02 13:15:56;;;;;;;;;;;26.00;95.10;;;;;;5353791;26;19932;-66
2024/05/02 13:18:22;;;;;;;;;;;26.10;95.40;;;;;;5366573;26;19944;-65
2024/05/02 13:20:49;;;;;;;;;;;26.10;95.50;;;;;;5364383;26;19949;-64
2024/05/02 13:23:15;;;;;;;;;;;26.20;94.90;;;;;;5363181;26;19925;-65
2024/05/02 13:25:40;;;;;;;;;;;26.20;94.40;;;;;;5349654;26;19937;-65
2024/05/02 13:28:06;;;;;;;;;;;26.20;94.30;;;;;;5353200;26;19931;-65
2024/05/02 13:30:31;;;;;;;;;;;26.20;94.50;;;;;;5356379;26;19938;-64
2024/05/02 13:32:57;;;;;;;;;;;26.30;94.80;;;;;;5347979;26;19925;-66
2024/05/02 13:35:22;;;;;;;;;;;26.30;94.20;;;;;;5354265;26;19925;-64
2024/05/02 13:37:48;;;;;;;;;;;26.30;94.50;;;;;;5350892;26;20042;-65
2024/05/02 13:40:13;;;;;;;;;;;26.40;94.10;;;;;;5379442;26;19925;-65
2024/05/02 13:42:39;;;;;;;;;;;26.40;94.50;;;;;;5360377;26;19929;-65
2024/05/02 13:45:05;;;;;;;;;;;26.50;94.70;;;;;;5357170;26;19937;-65
2024/05/02 13:47:30;;;;;;;;;;;26.50;94.40;;;;;;5361548;26;20351;-65
2024/05/02 13:49:55;;;;;;;;;;;26.60;95.00;;;;;;5359861;26;20006;-64
2024/05/02 13:52:21;;;;;;;;;;;26.60;94.30;;;;;;5347495;26;19933;-65
2024/05/02 13:54:46;;;;;;;;;;;26.60;94.70;;;;;;5352758;26;20245;-64
2024/05/02 13:57:12;;;;;;;;;;;26.70;94.40;;;;;;5353848;26;21264;-64
2024/05/02 13:59:37;;;;;;;;;;;26.70;94.40;;;;;;5352985;26;19934;-65
2024/05/02 14:02:03;;;;;;;;;;;26.80;93.70;;;;;;5355829;26;19940;-65
2024/05/02 14:04:28;;;;;;;;;;;26.70;93.60;;;;;;5350308;26;20240;-65
2024/05/02 14:06:54;;;;;;;;;;;26.60;93.90;;;;;;5358406;26;19926;-65